sensor_id;sensor_type;location;lat;lon;timestamp;temperature;humidity
17208;DHT22;8720;48.488;9.202;2023-08-20T00:02:12;24.60;54.40
17208;DHT22;8720;48.488;9.202;2023-08-20T00:04:40;24.60;55.30
17208;DHT22;8720;48.488;9.202;2023-08-20T00:07:12;24.50;54.80
17208;DHT22;8720;48.488;9.202;2023-08-20T00:09:41;24.50;55.10
17208;DHT22;8720;48.488;9.202;2023-08-20T00:12:10;24.50;55.10
17208;DHT22;8720;48.488;9.202;2023-08-20T00:14:54;24.40;55.20
17208;DHT22;8720;48.488;9.202;2023-08-20T00:17:25;24.40;55.60
17208;DHT22;8720;48.488;9.202;2023-08-20T00:19:53;24.30;55.20
17208;DHT22;8720;48.488;9.202;2023-08-20T00:22:22;24.30;55.60
17208;DHT22;8720;48.488;9.202;2023-08-20T00:24:51;24.30;55.70
17208;DHT22;8720;48.488;9.202;2023-08-20T00:27:21;24.30;55.80
17208;DHT22;8720;48.488;9.202;2023-08-20T00:29:48;24.20;55.80
17208;DHT22;8720;48.488;9.202;2023-08-20T00:32:16;24.20;55.60
17208;DHT22;8720;48.488;9.202;2023-08-20T00:34:44;24.20;56.50
17208;DHT22;8720;48.488;9.202;2023-08-20T00:37:11;24.20;55.90
17208;DHT22;8720;48.488;9.202;2023-08-20T00:39:39;24.20;55.80
17208;DHT22;8720;48.488;9.202;2023-08-20T00:42:06;24.10;55.70
17208;DHT22;8720;48.488;9.202;2023-08-20T00:44:36;24.10;55.90
17208;DHT22;8720;48.488;9.202;2023-08-20T00:47:04;24.10;56.20
17208;DHT22;8720;48.488;9.202;2023-08-20T00:49:32;24.10;56.40
17208;DHT22;8720;48.488;9.202;2023-08-20T00:52:00;24.10;56.30
17208;DHT22;8720;48.488;9.202;2023-08-20T00:54:32;24.10;56.30
17208;DHT22;8720;48.488;9.202;2023-08-20T00:56:59;24.00;56.50
17208;DHT22;8720;48.488;9.202;2023-08-20T00:59:29;24.00;56.50
17208;DHT22;8720;48.488;9.202;2023-08-20T01:02:01;24.00;56.70
17208;DHT22;8720;48.488;9.202;2023-08-20T01:04:29;24.00;57.20
17208;DHT22;8720;48.488;9.202;2023-08-20T01:07:04;23.90;57.00
17208;DHT22;8720;48.488;9.202;2023-08-20T01:09:48;23.90;57.60
17208;DHT22;8720;48.488;9.202;2023-08-20T01:12:22;23.90;57.30
17208;DHT22;8720;48.488;9.202;2023-08-20T01:14:51;23.90;57.20
17208;DHT22;8720;48.488;9.202;2023-08-20T01:17:19;23.80;57.20
17208;DHT22;8720;48.488;9.202;2023-08-20T01:19:47;23.80;57.50
17208;DHT22;8720;48.488;9.202;2023-08-20T01:22:48;23.80;57.50
17208;DHT22;8720;48.488;9.202;2023-08-20T01:25:44;23.70;57.90
17208;DHT22;8720;48.488;9.202;2023-08-20T01:28:24;23.70;57.70
17208;DHT22;8720;48.488;9.202;2023-08-20T01:30:53;23.70;57.90
17208;DHT22;8720;48.488;9.202;2023-08-20T01:33:23;23.70;57.60
17208;DHT22;8720;48.488;9.202;2023-08-20T01:35:51;23.70;57.60
17208;DHT22;8720;48.488;9.202;2023-08-20T01:38:19;23.70;57.90
17208;DHT22;8720;48.488;9.202;2023-08-20T01:40:47;23.60;57.80
17208;DHT22;8720;48.488;9.202;2023-08-20T01:43:15;23.60;57.90
17208;DHT22;8720;48.488;9.202;2023-08-20T01:45:44;23.60;58.00
17208;DHT22;8720;48.488;9.202;2023-08-20T01:48:11;23.60;58.10
17208;DHT22;8720;48.488;9.202;2023-08-20T01:50:38;23.60;58.30
17208;DHT22;8720;48.488;9.202;2023-08-20T01:53:06;23.50;58.50
17208;DHT22;8720;48.488;9.202;2023-08-20T01:55:35;23.50;58.40
17208;DHT22;8720;48.488;9.202;2023-08-20T01:58:02;23.50;58.40
17208;DHT22;8720;48.488;9.202;2023-08-20T02:06:04;23.40;58.70
17208;DHT22;8720;48.488;9.202;2023-08-20T02:08:31;23.40;59.00
17208;DHT22;8720;48.488;9.202;2023-08-20T02:11:00;23.30;59.50
17208;DHT22;8720;48.488;9.202;2023-08-20T02:13:29;23.30;59.10
17208;DHT22;8720;48.488;9.202;2023-08-20T02:16:00;23.30;59.80
17208;DHT22;8720;48.488;9.202;2023-08-20T02:18:28;23.20;59.40
17208;DHT22;8720;48.488;9.202;2023-08-20T02:20:56;23.20;59.00
17208;DHT22;8720;48.488;9.202;2023-08-20T02:23:25;23.20;59.20
17208;DHT22;8720;48.488;9.202;2023-08-20T02:25:53;23.20;59.40
17208;DHT22;8720;48.488;9.202;2023-08-20T02:28:20;23.10;59.30
17208;DHT22;8720;48.488;9.202;2023-08-20T02:30:49;23.10;59.30
17208;DHT22;8720;48.488;9.202;2023-08-20T02:33:17;23.10;59.50
17208;DHT22;8720;48.488;9.202;2023-08-20T02:35:44;23.10;59.70
17208;DHT22;8720;48.488;9.202;2023-08-20T02:38:11;23.10;59.80
17208;DHT22;8720;48.488;9.202;2023-08-20T02:40:42;23.10;60.00
17208;DHT22;8720;48.488;9.202;2023-08-20T02:43:09;23.10;60.40
17208;DHT22;8720;48.488;9.202;2023-08-20T02:45:40;23.00;60.10
17208;DHT22;8720;48.488;9.202;2023-08-20T02:48:08;23.00;61.20
17208;DHT22;8720;48.488;9.202;2023-08-20T02:50:36;23.00;60.30
17208;DHT22;8720;48.488;9.202;2023-08-20T02:53:03;23.00;60.40
17208;DHT22;8720;48.488;9.202;2023-08-20T02:55:31;23.00;60.60
17208;DHT22;8720;48.488;9.202;2023-08-20T02:58:01;23.00;60.50
17208;DHT22;8720;48.488;9.202;2023-08-20T03:00:29;22.90;60.80
17208;DHT22;8720;48.488;9.202;2023-08-20T03:02:57;22.90;60.60
17208;DHT22;8720;48.488;9.202;2023-08-20T03:05:24;22.90;60.70
17208;DHT22;8720;48.488;9.202;2023-08-20T03:07:51;22.90;60.90
17208;DHT22;8720;48.488;9.202;2023-08-20T03:10:19;22.90;60.90
17208;DHT22;8720;48.488;9.202;2023-08-20T03:12:46;22.90;61.70
17208;DHT22;8720;48.488;9.202;2023-08-20T03:15:15;22.90;61.20
17208;DHT22;8720;48.488;9.202;2023-08-20T03:17:42;22.80;61.20
17208;DHT22;8720;48.488;9.202;2023-08-20T03:20:10;22.80;61.20
17208;DHT22;8720;48.488;9.202;2023-08-20T03:22:38;22.80;61.40
17208;DHT22;8720;48.488;9.202;2023-08-20T03:25:06;22.80;61.40
17208;DHT22;8720;48.488;9.202;2023-08-20T03:27:34;22.80;61.40
17208;DHT22;8720;48.488;9.202;2023-08-20T03:30:01;22.80;61.40
17208;DHT22;8720;48.488;9.202;2023-08-20T03:32:31;22.70;61.30
17208;DHT22;8720;48.488;9.202;2023-08-20T03:34:59;22.70;61.80
17208;DHT22;8720;48.488;9.202;2023-08-20T03:37:27;22.70;61.90
17208;DHT22;8720;48.488;9.202;2023-08-20T03:39:54;22.60;61.90
17208;DHT22;8720;48.488;9.202;2023-08-20T03:42:22;22.60;62.20
17208;DHT22;8720;48.488;9.202;2023-08-20T03:44:49;22.60;62.40
17208;DHT22;8720;48.488;9.202;2023-08-20T03:47:16;22.60;62.60
17208;DHT22;8720;48.488;9.202;2023-08-20T03:49:47;22.60;62.50
17208;DHT22;8720;48.488;9.202;2023-08-20T03:52:14;22.50;62.60
17208;DHT22;8720;48.488;9.202;2023-08-20T03:54:42;22.50;62.50
17208;DHT22;8720;48.488;9.202;2023-08-20T03:57:09;22.50;62.60
17208;DHT22;8720;48.488;9.202;2023-08-20T03:59:37;22.50;62.70
17208;DHT22;8720;48.488;9.202;2023-08-20T04:02:04;22.50;62.80
17208;DHT22;8720;48.488;9.202;2023-08-20T04:04:31;22.50;62.90
17208;DHT22;8720;48.488;9.202;2023-08-20T04:07:00;22.50;63.00
17208;DHT22;8720;48.488;9.202;2023-08-20T04:09:27;22.40;63.20
17208;DHT22;8720;48.488;9.202;2023-08-20T04:11:54;22.40;63.10
17208;DHT22;8720;48.488;9.202;2023-08-20T04:14:21;22.40;63.20
17208;DHT22;8720;48.488;9.202;2023-08-20T04:16:49;22.40;63.20
17208;DHT22;8720;48.488;9.202;2023-08-20T04:19:16;22.40;63.30
17208;DHT22;8720;48.488;9.202;2023-08-20T04:21:43;22.40;63.60
17208;DHT22;8720;48.488;9.202;2023-08-20T04:24:12;22.40;63.80
17208;DHT22;8720;48.488;9.202;2023-08-20T04:26:40;22.30;64.10
17208;DHT22;8720;48.488;9.202;2023-08-20T04:29:08;22.30;64.00
17208;DHT22;8720;48.488;9.202;2023-08-20T04:31:35;22.30;64.20
17208;DHT22;8720;48.488;9.202;2023-08-20T04:34:08;22.30;64.70
17208;DHT22;8720;48.488;9.202;2023-08-20T04:36:43;22.30;64.90
17208;DHT22;8720;48.488;9.202;2023-08-20T04:39:12;22.30;65.10
17208;DHT22;8720;48.488;9.202;2023-08-20T04:41:44;22.30;65.50
17208;DHT22;8720;48.488;9.202;2023-08-20T04:44:15;22.30;65.30
17208;DHT22;8720;48.488;9.202;2023-08-20T04:46:43;22.40;65.40
17208;DHT22;8720;48.488;9.202;2023-08-20T04:49:11;22.40;65.30
17208;DHT22;8720;48.488;9.202;2023-08-20T04:51:39;22.50;65.40
17208;DHT22;8720;48.488;9.202;2023-08-20T04:54:06;22.50;65.50
17208;DHT22;8720;48.488;9.202;2023-08-20T04:56:35;22.50;65.60
17208;DHT22;8720;48.488;9.202;2023-08-20T04:59:02;22.60;65.80
17208;DHT22;8720;48.488;9.202;2023-08-20T05:01:48;22.60;65.70
17208;DHT22;8720;48.488;9.202;2023-08-20T05:04:18;22.60;65.40
17208;DHT22;8720;48.488;9.202;2023-08-20T05:06:46;22.70;65.60
17208;DHT22;8720;48.488;9.202;2023-08-20T05:09:13;22.80;65.50
17208;DHT22;8720;48.488;9.202;2023-08-20T05:11:44;22.80;65.20
17208;DHT22;8720;48.488;9.202;2023-08-20T05:14:11;22.80;65.20
17208;DHT22;8720;48.488;9.202;2023-08-20T05:16:39;22.80;65.00
17208;DHT22;8720;48.488;9.202;2023-08-20T05:19:07;22.80;64.90
17208;DHT22;8720;48.488;9.202;2023-08-20T05:21:34;22.80;64.90
17208;DHT22;8720;48.488;9.202;2023-08-20T05:24:01;22.90;65.10
17208;DHT22;8720;48.488;9.202;2023-08-20T05:26:29;22.90;65.00
17208;DHT22;8720;48.488;9.202;2023-08-20T05:28:58;22.90;65.00
17208;DHT22;8720;48.488;9.202;2023-08-20T05:31:26;23.00;65.10
17208;DHT22;8720;48.488;9.202;2023-08-20T05:33:54;23.00;65.00
17208;DHT22;8720;48.488;9.202;2023-08-20T05:36:23;23.10;65.00
17208;DHT22;8720;48.488;9.202;2023-08-20T05:38:51;23.10;65.10
17208;DHT22;8720;48.488;9.202;2023-08-20T05:41:18;23.20;64.90
17208;DHT22;8720;48.488;9.202;2023-08-20T05:43:45;23.20;64.90
17208;DHT22;8720;48.488;9.202;2023-08-20T05:46:14;23.20;64.90
17208;DHT22;8720;48.488;9.202;2023-08-20T05:48:41;23.30;65.10
17208;DHT22;8720;48.488;9.202;2023-08-20T05:51:10;23.40;65.10
17208;DHT22;8720;48.488;9.202;2023-08-20T05:53:38;23.40;65.20
17208;DHT22;8720;48.488;9.202;2023-08-20T05:56:05;23.50;65.30
17208;DHT22;8720;48.488;9.202;2023-08-20T05:58:33;23.60;65.50
17208;DHT22;8720;48.488;9.202;2023-08-20T06:01:00;23.70;65.30
17208;DHT22;8720;48.488;9.202;2023-08-20T06:03:30;23.70;65.20
17208;DHT22;8720;48.488;9.202;2023-08-20T06:05:57;23.80;65.10
17208;DHT22;8720;48.488;9.202;2023-08-20T06:08:24;23.90;65.00
17208;DHT22;8720;48.488;9.202;2023-08-20T06:10:52;24.00;64.90
17208;DHT22;8720;48.488;9.202;2023-08-20T06:13:19;24.10;64.90
17208;DHT22;8720;48.488;9.202;2023-08-20T06:15:46;24.10;64.50
17208;DHT22;8720;48.488;9.202;2023-08-20T06:18:14;24.20;64.50
17208;DHT22;8720;48.488;9.202;2023-08-20T06:20:42;24.40;64.80
17208;DHT22;8720;48.488;9.202;2023-08-20T06:23:09;24.60;65.00
17208;DHT22;8720;48.488;9.202;2023-08-20T06:25:38;24.90;65.20
17208;DHT22;8720;48.488;9.202;2023-08-20T06:28:05;25.30;65.10
17208;DHT22;8720;48.488;9.202;2023-08-20T06:30:32;25.70;64.40
17208;DHT22;8720;48.488;9.202;2023-08-20T06:32:59;26.20;63.90
17208;DHT22;8720;48.488;9.202;2023-08-20T06:35:27;26.70;63.00
17208;DHT22;8720;48.488;9.202;2023-08-20T06:37:55;27.20;62.00
17208;DHT22;8720;48.488;9.202;2023-08-20T06:40:23;27.70;60.60
17208;DHT22;8720;48.488;9.202;2023-08-20T06:42:50;28.20;60.00
17208;DHT22;8720;48.488;9.202;2023-08-20T06:45:17;28.70;58.70
17208;DHT22;8720;48.488;9.202;2023-08-20T06:47:44;29.10;57.70
17208;DHT22;8720;48.488;9.202;2023-08-20T06:50:12;29.50;56.80
17208;DHT22;8720;48.488;9.202;2023-08-20T06:52:39;30.00;56.00
17208;DHT22;8720;48.488;9.202;2023-08-20T06:55:08;30.40;55.30
17208;DHT22;8720;48.488;9.202;2023-08-20T06:57:35;30.80;54.00
17208;DHT22;8720;48.488;9.202;2023-08-20T07:00:03;31.20;53.80
17208;DHT22;8720;48.488;9.202;2023-08-20T07:02:32;31.50;52.70
17208;DHT22;8720;48.488;9.202;2023-08-20T07:04:59;31.90;52.10
17208;DHT22;8720;48.488;9.202;2023-08-20T07:07:26;32.20;51.20
17208;DHT22;8720;48.488;9.202;2023-08-20T07:09:54;32.50;50.60
17208;DHT22;8720;48.488;9.202;2023-08-20T07:12:22;32.70;49.90
17208;DHT22;8720;48.488;9.202;2023-08-20T07:14:49;33.00;49.00
17208;DHT22;8720;48.488;9.202;2023-08-20T07:17:17;33.20;48.90
17208;DHT22;8720;48.488;9.202;2023-08-20T07:19:44;33.40;48.40
17208;DHT22;8720;48.488;9.202;2023-08-20T07:22:11;33.60;48.00
17208;DHT22;8720;48.488;9.202;2023-08-20T07:24:38;33.70;47.40
17208;DHT22;8720;48.488;9.202;2023-08-20T07:27:06;33.90;46.90
17208;DHT22;8720;48.488;9.202;2023-08-20T07:29:41;33.90;46.40
17208;DHT22;8720;48.488;9.202;2023-08-20T07:32:08;33.90;45.70
17208;DHT22;8720;48.488;9.202;2023-08-20T07:34:35;33.80;45.70
17208;DHT22;8720;48.488;9.202;2023-08-20T07:37:03;33.70;45.60
17208;DHT22;8720;48.488;9.202;2023-08-20T07:39:30;33.60;45.50
17208;DHT22;8720;48.488;9.202;2023-08-20T07:41:58;33.50;45.90
17208;DHT22;8720;48.488;9.202;2023-08-20T07:44:26;33.40;46.10
17208;DHT22;8720;48.488;9.202;2023-08-20T07:46:55;33.40;45.80
17208;DHT22;8720;48.488;9.202;2023-08-20T07:49:22;33.30;45.60
17208;DHT22;8720;48.488;9.202;2023-08-20T07:51:49;33.20;45.70
17208;DHT22;8720;48.488;9.202;2023-08-20T07:54:18;33.10;45.80
17208;DHT22;8720;48.488;9.202;2023-08-20T07:56:45;33.10;46.20
17208;DHT22;8720;48.488;9.202;2023-08-20T07:59:12;33.00;46.40
17208;DHT22;8720;48.488;9.202;2023-08-20T08:01:39;33.00;47.20
17208;DHT22;8720;48.488;9.202;2023-08-20T08:04:08;33.00;46.60
17208;DHT22;8720;48.488;9.202;2023-08-20T08:06:35;33.00;46.60
17208;DHT22;8720;48.488;9.202;2023-08-20T08:09:19;33.10;46.50
17208;DHT22;8720;48.488;9.202;2023-08-20T08:11:48;33.20;45.90
17208;DHT22;8720;48.488;9.202;2023-08-20T08:14:15;33.20;46.50
17208;DHT22;8720;48.488;9.202;2023-08-20T08:16:44;33.30;46.40
17208;DHT22;8720;48.488;9.202;2023-08-20T08:19:13;33.40;46.30
17208;DHT22;8720;48.488;9.202;2023-08-20T08:21:41;33.50;45.90
17208;DHT22;8720;48.488;9.202;2023-08-20T08:24:10;33.60;45.90
17208;DHT22;8720;48.488;9.202;2023-08-20T08:26:38;33.60;45.80
17208;DHT22;8720;48.488;9.202;2023-08-20T08:29:07;33.70;45.80
17208;DHT22;8720;48.488;9.202;2023-08-20T08:31:35;33.80;45.50
17208;DHT22;8720;48.488;9.202;2023-08-20T08:34:02;33.90;45.30
17208;DHT22;8720;48.488;9.202;2023-08-20T08:36:31;34.10;45.00
17208;DHT22;8720;48.488;9.202;2023-08-20T08:38:59;34.20;44.80
17208;DHT22;8720;48.488;9.202;2023-08-20T08:41:26;34.30;44.70
17208;DHT22;8720;48.488;9.202;2023-08-20T08:43:56;34.30;44.30
17208;DHT22;8720;48.488;9.202;2023-08-20T08:46:24;34.30;44.70
17208;DHT22;8720;48.488;9.202;2023-08-20T08:48:52;34.30;44.50
17208;DHT22;8720;48.488;9.202;2023-08-20T08:51:20;34.30;44.30
17208;DHT22;8720;48.488;9.202;2023-08-20T08:53:48;34.30;44.50
17208;DHT22;8720;48.488;9.202;2023-08-20T08:56:17;34.20;43.90
17208;DHT22;8720;48.488;9.202;2023-08-20T08:58:44;34.20;43.60
17208;DHT22;8720;48.488;9.202;2023-08-20T09:01:11;34.10;43.70
17208;DHT22;8720;48.488;9.202;2023-08-20T09:03:39;34.00;44.00
17208;DHT22;8720;48.488;9.202;2023-08-20T09:06:09;33.90;44.30
17208;DHT22;8720;48.488;9.202;2023-08-20T09:08:36;33.80;43.80
17208;DHT22;8720;48.488;9.202;2023-08-20T09:11:05;33.80;44.10
17208;DHT22;8720;48.488;9.202;2023-08-20T09:13:36;33.70;44.20
17208;DHT22;8720;48.488;9.202;2023-08-20T09:16:05;33.60;44.00
17208;DHT22;8720;48.488;9.202;2023-08-20T09:18:37;33.50;44.00
17208;DHT22;8720;48.488;9.202;2023-08-20T09:21:06;33.50;44.30
17208;DHT22;8720;48.488;9.202;2023-08-20T09:23:35;33.40;44.20
17208;DHT22;8720;48.488;9.202;2023-08-20T09:26:06;33.30;43.90
17208;DHT22;8720;48.488;9.202;2023-08-20T09:28:41;33.20;44.20
17208;DHT22;8720;48.488;9.202;2023-08-20T09:31:09;33.20;44.30
17208;DHT22;8720;48.488;9.202;2023-08-20T09:33:36;33.10;44.40
17208;DHT22;8720;48.488;9.202;2023-08-20T09:36:15;33.10;44.30
17208;DHT22;8720;48.488;9.202;2023-08-20T09:38:42;33.00;44.40
17208;DHT22;8720;48.488;9.202;2023-08-20T09:41:12;33.00;44.70
17208;DHT22;8720;48.488;9.202;2023-08-20T09:43:39;33.00;44.80
17208;DHT22;8720;48.488;9.202;2023-08-20T09:46:10;33.00;44.80
17208;DHT22;8720;48.488;9.202;2023-08-20T09:48:41;33.00;44.80
17208;DHT22;8720;48.488;9.202;2023-08-20T09:51:14;33.00;44.50
17208;DHT22;8720;48.488;9.202;2023-08-20T09:53:53;33.00;44.30
17208;DHT22;8720;48.488;9.202;2023-08-20T09:56:30;33.00;43.90
17208;DHT22;8720;48.488;9.202;2023-08-20T09:58:58;33.00;44.20
17208;DHT22;8720;48.488;9.202;2023-08-20T10:01:27;33.00;43.60
17208;DHT22;8720;48.488;9.202;2023-08-20T10:03:55;33.00;43.70
17208;DHT22;8720;48.488;9.202;2023-08-20T10:06:23;33.00;43.60
17208;DHT22;8720;48.488;9.202;2023-08-20T10:08:53;33.00;43.60
17208;DHT22;8720;48.488;9.202;2023-08-20T10:11:21;33.00;43.20
17208;DHT22;8720;48.488;9.202;2023-08-20T10:13:49;33.00;43.10
17208;DHT22;8720;48.488;9.202;2023-08-20T10:16:17;33.00;43.20
17208;DHT22;8720;48.488;9.202;2023-08-20T10:18:47;32.90;43.10
17208;DHT22;8720;48.488;9.202;2023-08-20T10:21:15;32.90;43.40
17208;DHT22;8720;48.488;9.202;2023-08-20T10:23:42;32.90;43.30
17208;DHT22;8720;48.488;9.202;2023-08-20T10:26:15;32.90;43.20
17208;DHT22;8720;48.488;9.202;2023-08-20T10:28:44;32.90;42.90
17208;DHT22;8720;48.488;9.202;2023-08-20T10:31:16;32.90;42.70
17208;DHT22;8720;48.488;9.202;2023-08-20T10:33:50;32.90;41.90
17208;DHT22;8720;48.488;9.202;2023-08-20T10:36:21;32.90;41.70
17208;DHT22;8720;48.488;9.202;2023-08-20T10:38:54;32.80;42.00
17208;DHT22;8720;48.488;9.202;2023-08-20T10:41:24;32.80;42.10
17208;DHT22;8720;48.488;9.202;2023-08-20T10:43:52;32.80;41.70
17208;DHT22;8720;48.488;9.202;2023-08-20T10:46:21;32.80;42.10
17208;DHT22;8720;48.488;9.202;2023-08-20T10:48:51;32.80;42.30
17208;DHT22;8720;48.488;9.202;2023-08-20T10:51:24;32.80;42.50
17208;DHT22;8720;48.488;9.202;2023-08-20T10:54:04;32.70;42.90
17208;DHT22;8720;48.488;9.202;2023-08-20T10:56:41;32.70;42.50
17208;DHT22;8720;48.488;9.202;2023-08-20T10:59:13;32.80;42.70
17208;DHT22;8720;48.488;9.202;2023-08-20T11:01:45;32.80;43.00
17208;DHT22;8720;48.488;9.202;2023-08-20T11:04:14;32.70;43.00
17208;DHT22;8720;48.488;9.202;2023-08-20T11:06:42;32.70;43.00
17208;DHT22;8720;48.488;9.202;2023-08-20T11:09:09;32.70;43.00
17208;DHT22;8720;48.488;9.202;2023-08-20T11:11:38;32.70;43.10
17208;DHT22;8720;48.488;9.202;2023-08-20T11:14:07;32.70;43.00
17208;DHT22;8720;48.488;9.202;2023-08-20T11:16:40;32.60;42.70
17208;DHT22;8720;48.488;9.202;2023-08-20T11:19:10;32.60;42.90
17208;DHT22;8720;48.488;9.202;2023-08-20T11:21:39;32.60;43.20
17208;DHT22;8720;48.488;9.202;2023-08-20T11:24:07;32.60;42.90
17208;DHT22;8720;48.488;9.202;2023-08-20T11:26:38;32.60;42.90
17208;DHT22;8720;48.488;9.202;2023-08-20T11:29:06;32.60;42.70
17208;DHT22;8720;48.488;9.202;2023-08-20T11:31:34;32.60;42.40
17208;DHT22;8720;48.488;9.202;2023-08-20T11:34:03;32.60;42.00
17208;DHT22;8720;48.488;9.202;2023-08-20T11:36:33;32.60;42.20
17208;DHT22;8720;48.488;9.202;2023-08-20T11:39:01;32.60;42.60
17208;DHT22;8720;48.488;9.202;2023-08-20T11:41:29;32.60;42.60
17208;DHT22;8720;48.488;9.202;2023-08-20T11:43:57;32.60;42.60
17208;DHT22;8720;48.488;9.202;2023-08-20T11:46:24;32.70;42.30
17208;DHT22;8720;48.488;9.202;2023-08-20T11:49:05;32.70;42.50
17208;DHT22;8720;48.488;9.202;2023-08-20T11:51:37;32.70;41.90
17208;DHT22;8720;48.488;9.202;2023-08-20T11:54:05;32.80;42.10
17208;DHT22;8720;48.488;9.202;2023-08-20T11:56:34;32.90;42.10
17208;DHT22;8720;48.488;9.202;2023-08-20T11:59:04;32.90;42.20
17208;DHT22;8720;48.488;9.202;2023-08-20T12:01:31;32.90;42.00
17208;DHT22;8720;48.488;9.202;2023-08-20T12:04:00;32.90;42.50
17208;DHT22;8720;48.488;9.202;2023-08-20T12:06:30;32.90;42.10
17208;DHT22;8720;48.488;9.202;2023-08-20T12:08:59;33.00;42.30
17208;DHT22;8720;48.488;9.202;2023-08-20T12:11:26;33.00;42.10
17208;DHT22;8720;48.488;9.202;2023-08-20T12:13:54;33.10;42.20
17208;DHT22;8720;48.488;9.202;2023-08-20T12:16:23;33.20;42.10
17208;DHT22;8720;48.488;9.202;2023-08-20T12:18:51;33.20;42.40
17208;DHT22;8720;48.488;9.202;2023-08-20T12:21:19;33.20;41.80
17208;DHT22;8720;48.488;9.202;2023-08-20T12:23:46;33.30;41.50
17208;DHT22;8720;48.488;9.202;2023-08-20T12:26:15;33.30;41.40
17208;DHT22;8720;48.488;9.202;2023-08-20T12:28:42;33.30;41.40
17208;DHT22;8720;48.488;9.202;2023-08-20T12:31:09;33.40;41.30
17208;DHT22;8720;48.488;9.202;2023-08-20T12:33:37;33.40;41.30
17208;DHT22;8720;48.488;9.202;2023-08-20T12:36:04;33.50;41.40
17208;DHT22;8720;48.488;9.202;2023-08-20T12:38:32;33.50;41.00
17208;DHT22;8720;48.488;9.202;2023-08-20T12:41:00;33.50;40.90
17208;DHT22;8720;48.488;9.202;2023-08-20T12:43:30;33.50;41.30
17208;DHT22;8720;48.488;9.202;2023-08-20T12:46:01;33.50;40.40
17208;DHT22;8720;48.488;9.202;2023-08-20T12:48:29;33.50;40.60
17208;DHT22;8720;48.488;9.202;2023-08-20T12:50:56;33.50;40.70
17208;DHT22;8720;48.488;9.202;2023-08-20T12:53:24;33.50;40.90
17208;DHT22;8720;48.488;9.202;2023-08-20T12:55:52;33.60;40.50
17208;DHT22;8720;48.488;9.202;2023-08-20T12:58:19;33.60;40.70
17208;DHT22;8720;48.488;9.202;2023-08-20T13:00:47;33.60;40.40
17208;DHT22;8720;48.488;9.202;2023-08-20T13:03:16;33.70;40.20
17208;DHT22;8720;48.488;9.202;2023-08-20T13:05:44;33.60;40.10
17208;DHT22;8720;48.488;9.202;2023-08-20T13:08:12;33.70;40.00
17208;DHT22;8720;48.488;9.202;2023-08-20T13:10:41;33.70;40.00
17208;DHT22;8720;48.488;9.202;2023-08-20T13:13:12;33.70;39.80
17208;DHT22;8720;48.488;9.202;2023-08-20T13:15:41;33.80;39.90
17208;DHT22;8720;48.488;9.202;2023-08-20T13:18:12;33.80;40.20
17208;DHT22;8720;48.488;9.202;2023-08-20T13:20:40;33.90;39.90
17208;DHT22;8720;48.488;9.202;2023-08-20T13:23:07;33.90;39.80
17208;DHT22;8720;48.488;9.202;2023-08-20T13:25:35;33.90;39.40
17208;DHT22;8720;48.488;9.202;2023-08-20T13:28:02;34.00;40.00
17208;DHT22;8720;48.488;9.202;2023-08-20T13:30:30;34.10;39.50
17208;DHT22;8720;48.488;9.202;2023-08-20T13:32:59;34.00;39.30
17208;DHT22;8720;48.488;9.202;2023-08-20T13:35:27;34.10;39.30
17208;DHT22;8720;48.488;9.202;2023-08-20T13:37:55;34.10;39.20
17208;DHT22;8720;48.488;9.202;2023-08-20T13:40:22;34.10;39.20
17208;DHT22;8720;48.488;9.202;2023-08-20T13:42:49;34.20;39.20
17208;DHT22;8720;48.488;9.202;2023-08-20T13:45:17;34.20;39.20
17208;DHT22;8720;48.488;9.202;2023-08-20T13:47:44;34.20;38.90
17208;DHT22;8720;48.488;9.202;2023-08-20T13:50:11;34.30;38.90
17208;DHT22;8720;48.488;9.202;2023-08-20T13:52:40;34.30;38.90
17208;DHT22;8720;48.488;9.202;2023-08-20T13:55:08;34.30;38.70
17208;DHT22;8720;48.488;9.202;2023-08-20T13:57:35;34.30;38.80
17208;DHT22;8720;48.488;9.202;2023-08-20T14:00:04;34.40;38.70
17208;DHT22;8720;48.488;9.202;2023-08-20T14:02:35;34.40;38.50
17208;DHT22;8720;48.488;9.202;2023-08-20T14:05:03;34.40;38.50
17208;DHT22;8720;48.488;9.202;2023-08-20T14:07:34;34.40;38.40
17208;DHT22;8720;48.488;9.202;2023-08-20T14:10:03;34.50;38.20
17208;DHT22;8720;48.488;9.202;2023-08-20T14:12:31;34.50;38.30
17208;DHT22;8720;48.488;9.202;2023-08-20T14:14:58;34.50;38.30
17208;DHT22;8720;48.488;9.202;2023-08-20T14:17:39;34.50;38.20
17208;DHT22;8720;48.488;9.202;2023-08-20T14:20:10;34.50;38.20
17208;DHT22;8720;48.488;9.202;2023-08-20T14:22:52;34.60;38.10
17208;DHT22;8720;48.488;9.202;2023-08-20T14:25:22;34.50;37.90
17208;DHT22;8720;48.488;9.202;2023-08-20T14:27:50;34.50;38.00
17208;DHT22;8720;48.488;9.202;2023-08-20T14:30:19;34.50;38.00
17208;DHT22;8720;48.488;9.202;2023-08-20T14:32:50;34.60;38.10
17208;DHT22;8720;48.488;9.202;2023-08-20T14:35:19;34.60;37.90
17208;DHT22;8720;48.488;9.202;2023-08-20T14:37:51;34.60;37.90
17208;DHT22;8720;48.488;9.202;2023-08-20T14:40:30;34.60;38.60
17208;DHT22;8720;48.488;9.202;2023-08-20T14:43:01;34.70;37.90
17208;DHT22;8720;48.488;9.202;2023-08-20T14:45:34;34.70;37.90
17208;DHT22;8720;48.488;9.202;2023-08-20T14:48:03;34.70;37.80
17208;DHT22;8720;48.488;9.202;2023-08-20T14:50:34;34.70;38.00
17208;DHT22;8720;48.488;9.202;2023-08-20T14:53:03;34.70;37.80
17208;DHT22;8720;48.488;9.202;2023-08-20T14:55:37;34.70;37.50
17208;DHT22;8720;48.488;9.202;2023-08-20T14:58:08;34.70;37.50
17208;DHT22;8720;48.488;9.202;2023-08-20T15:00:39;34.70;37.50
17208;DHT22;8720;48.488;9.202;2023-08-20T15:03:11;34.80;37.60
17208;DHT22;8720;48.488;9.202;2023-08-20T15:05:41;34.80;37.80
17208;DHT22;8720;48.488;9.202;2023-08-20T15:08:09;34.80;37.50
17208;DHT22;8720;48.488;9.202;2023-08-20T15:10:41;34.80;37.40
17208;DHT22;8720;48.488;9.202;2023-08-20T15:13:18;34.90;37.50
17208;DHT22;8720;48.488;9.202;2023-08-20T15:15:51;34.90;37.70
17208;DHT22;8720;48.488;9.202;2023-08-20T15:18:21;34.90;37.60
17208;DHT22;8720;48.488;9.202;2023-08-20T15:20:54;35.00;37.50
17208;DHT22;8720;48.488;9.202;2023-08-20T15:23:27;35.00;37.50
17208;DHT22;8720;48.488;9.202;2023-08-20T15:25:59;35.00;37.50
17208;DHT22;8720;48.488;9.202;2023-08-20T15:28:27;35.00;37.70
17208;DHT22;8720;48.488;9.202;2023-08-20T15:31:02;35.10;37.90
17208;DHT22;8720;48.488;9.202;2023-08-20T15:33:31;35.10;37.60
17208;DHT22;8720;48.488;9.202;2023-08-20T15:36:01;35.10;37.60
17208;DHT22;8720;48.488;9.202;2023-08-20T15:38:34;35.10;37.40
17208;DHT22;8720;48.488;9.202;2023-08-20T15:41:04;35.10;37.50
17208;DHT22;8720;48.488;9.202;2023-08-20T15:43:33;35.10;37.60
17208;DHT22;8720;48.488;9.202;2023-08-20T15:46:10;35.10;37.60
17208;DHT22;8720;48.488;9.202;2023-08-20T15:48:38;35.00;37.30
17208;DHT22;8720;48.488;9.202;2023-08-20T15:51:16;35.00;37.30
17208;DHT22;8720;48.488;9.202;2023-08-20T15:53:46;35.00;37.40
17208;DHT22;8720;48.488;9.202;2023-08-20T15:56:16;34.90;37.20
17208;DHT22;8720;48.488;9.202;2023-08-20T15:58:49;34.90;37.40
17208;DHT22;8720;48.488;9.202;2023-08-20T16:01:20;34.90;37.30
17208;DHT22;8720;48.488;9.202;2023-08-20T16:03:51;34.80;37.30